createdAt,value
2019-03-12T00:00:08.505Z,1013.14
2019-03-12T00:01:08.470Z,1013.21
2019-03-12T00:02:08.456Z,1013.19
2019-03-12T00:03:08.443Z,1013.20
2019-03-12T00:04:08.424Z,1013.17
2019-03-12T00:05:09.229Z,1013.19
2019-03-12T00:06:08.435Z,1013.14
2019-03-12T00:07:08.616Z,1013.19
2019-03-12T00:08:08.429Z,1013.22
2019-03-12T00:09:08.381Z,1013.27
2019-03-12T00:10:08.363Z,1013.26
2019-03-12T00:11:08.353Z,1013.28
2019-03-12T00:12:08.348Z,1013.44
2019-03-12T00:13:08.343Z,1013.45
2019-03-12T00:14:08.344Z,1013.49
2019-03-12T00:15:08.310Z,1013.54
2019-03-12T00:16:08.298Z,1013.53
2019-03-12T00:17:08.291Z,1013.57
2019-03-12T00:18:08.311Z,1013.55
2019-03-12T00:19:08.276Z,1013.53
2019-03-12T00:20:08.264Z,1013.53
2019-03-12T00:21:08.370Z,1013.53
2019-03-12T00:22:08.260Z,1013.56
2019-03-12T00:23:08.235Z,1013.46
2019-03-12T00:24:08.257Z,1013.49
2019-03-12T00:25:08.210Z,1013.55
2019-03-12T00:26:08.213Z,1013.50
2019-03-12T00:27:08.188Z,1013.50
2019-03-12T00:28:08.312Z,1013.51
2019-03-12T00:29:08.192Z,1013.51
2019-03-12T00:30:08.224Z,1013.52
2019-03-12T00:31:08.145Z,1013.52
2019-03-12T00:32:08.182Z,1013.54
2019-03-12T00:33:08.126Z,1013.55
2019-03-12T00:34:08.176Z,1013.57
2019-03-12T00:35:08.161Z,1013.60
2019-03-12T00:36:08.119Z,1013.60
2019-03-12T00:37:08.090Z,1013.55
2019-03-12T00:38:08.070Z,1013.55
2019-03-12T00:39:08.064Z,1013.54
2019-03-12T00:40:08.049Z,1013.55
2019-03-12T00:41:08.060Z,1013.53
2019-03-12T00:42:08.037Z,1013.59
2019-03-12T00:43:08.042Z,1013.59
2019-03-12T00:44:08.004Z,1013.60
2019-03-12T00:45:08.026Z,1013.60
2019-03-12T00:46:08.013Z,1013.60
2019-03-12T00:47:07.978Z,1013.61
2019-03-12T00:48:07.975Z,1013.59
2019-03-12T00:49:08.006Z,1013.60
2019-03-12T00:50:07.944Z,1013.56
2019-03-12T00:51:07.974Z,1013.55
2019-03-12T00:52:07.926Z,1013.59
2019-03-12T00:53:07.913Z,1013.63
2019-03-12T00:54:07.908Z,1013.64
2019-03-12T00:55:07.896Z,1013.65
2019-03-12T00:56:07.881Z,1013.64
2019-03-12T00:57:07.907Z,1013.70
2019-03-12T00:58:07.880Z,1013.68
2019-03-12T00:59:07.873Z,1013.74
2019-03-12T01:00:07.840Z,1013.74
2019-03-12T01:01:07.833Z,1013.73
2019-03-12T01:02:07.816Z,1013.74
2019-03-12T01:03:07.829Z,1013.78
2019-03-12T01:04:07.795Z,1013.82
2019-03-12T01:05:07.800Z,1013.81
2019-03-12T01:06:07.783Z,1013.83
2019-03-12T01:07:07.798Z,1013.85
2019-03-12T01:08:07.789Z,1013.89
2019-03-12T01:09:07.745Z,1013.91
2019-03-12T01:10:07.724Z,1014.01
2019-03-12T01:11:07.725Z,1014.07
2019-03-12T01:12:07.729Z,1014.09
2019-03-12T01:13:07.734Z,1014.07
2019-03-12T01:14:07.688Z,1014.17
2019-03-12T01:15:07.679Z,1014.13
2019-03-12T01:16:07.716Z,1014.14
2019-03-12T01:17:07.649Z,1014.20
2019-03-12T01:18:07.647Z,1014.09
2019-03-12T01:19:07.638Z,1014.14
2019-03-12T01:20:07.642Z,1014.05
2019-03-12T01:21:07.617Z,1014.15
2019-03-12T01:22:07.638Z,1014.12
2019-03-12T01:23:07.586Z,1014.16
2019-03-12T01:24:07.604Z,1014.19
2019-03-12T01:25:07.566Z,1014.17
2019-03-12T01:26:07.560Z,1014.14
2019-03-12T01:27:07.558Z,1014.19
2019-03-12T01:28:07.565Z,1014.24
2019-03-12T01:29:07.530Z,1014.24
2019-03-12T01:30:07.512Z,1014.24
2019-03-12T01:31:07.501Z,1014.25
2019-03-12T01:32:07.496Z,1014.22
2019-03-12T01:33:07.520Z,1014.23
2019-03-12T01:34:07.477Z,1014.26
2019-03-12T01:35:07.460Z,1014.32
2019-03-12T01:36:07.451Z,1014.27
2019-03-12T01:37:07.445Z,1014.28
2019-03-12T01:38:07.467Z,1014.28
2019-03-12T01:39:07.425Z,1014.33
2019-03-12T01:40:07.416Z,1014.36
2019-03-12T01:41:07.406Z,1014.38
2019-03-12T01:42:07.403Z,1014.38
2019-03-12T01:43:07.376Z,1014.37
2019-03-12T01:44:07.385Z,1014.37
2019-03-12T01:45:07.353Z,1014.43
2019-03-12T01:46:07.348Z,1014.49
2019-03-12T01:47:07.345Z,1014.49
2019-03-12T01:48:07.321Z,1014.60
2019-03-12T01:49:07.343Z,1014.48
2019-03-12T01:50:07.308Z,1014.50
2019-03-12T01:51:07.301Z,1014.54
2019-03-12T01:52:07.299Z,1014.56
2019-03-12T01:53:07.275Z,1014.54
2019-03-12T01:54:07.256Z,1014.61
2019-03-12T01:55:07.267Z,1014.57
2019-03-12T01:56:07.240Z,1014.58
2019-03-12T01:57:07.231Z,1014.57
2019-03-12T01:58:07.225Z,1014.53
2019-03-12T01:59:07.213Z,1014.58
2019-03-12T02:00:07.234Z,1014.58
2019-03-12T02:01:07.189Z,1014.52
2019-03-12T02:02:07.174Z,1014.51
2019-03-12T02:03:07.164Z,1014.52
2019-03-12T02:04:07.157Z,1014.51
2019-03-12T02:05:07.176Z,1014.52
2019-03-12T02:06:07.180Z,1014.53
2019-03-12T02:07:07.120Z,1014.51
2019-03-12T02:08:07.141Z,1014.52
2019-03-12T02:09:07.102Z,1014.46
2019-03-12T02:10:07.095Z,1014.42
2019-03-12T02:11:07.097Z,1014.44
2019-03-12T02:12:07.113Z,1014.44
2019-03-12T02:13:07.065Z,1014.44
2019-03-12T02:14:07.048Z,1014.45
2019-03-12T02:15:07.038Z,1014.44
2019-03-12T02:16:07.033Z,1014.41
2019-03-12T02:17:07.028Z,1014.42
2019-03-12T02:18:07.036Z,1014.43
2019-03-12T02:19:07.015Z,1014.43
2019-03-12T02:20:06.999Z,1014.47
2019-03-12T02:21:07.003Z,1014.47
2019-03-12T02:22:06.969Z,1014.54
2019-03-12T02:23:07.011Z,1014.58
2019-03-12T02:24:06.997Z,1014.59
2019-03-12T02:25:06.937Z,1014.60
2019-03-12T02:26:06.941Z,1014.60
2019-03-12T02:27:06.915Z,1014.59
2019-03-12T02:28:06.898Z,1014.62
2019-03-12T02:29:06.889Z,1014.63
2019-03-12T02:30:06.881Z,1014.67
2019-03-12T02:31:06.892Z,1014.64
2019-03-12T02:32:06.868Z,1014.65
2019-03-12T02:33:06.851Z,1014.62
2019-03-12T02:34:06.833Z,1014.65
2019-03-12T02:35:06.834Z,1014.68
2019-03-12T02:36:06.876Z,1014.70
2019-03-12T02:37:06.809Z,1014.64
2019-03-12T02:38:06.797Z,1014.68
2019-03-12T02:39:07.735Z,1014.68
2019-03-12T02:40:06.773Z,1014.77
2019-03-12T02:41:06.757Z,1014.74
2019-03-12T02:42:06.785Z,1014.77
2019-03-12T02:43:06.750Z,1014.67
2019-03-12T02:44:06.736Z,1014.73
2019-03-12T02:45:06.730Z,1014.77
2019-03-12T02:46:06.709Z,1014.76
2019-03-12T02:47:06.705Z,1014.76
2019-03-12T02:48:06.705Z,1014.78
2019-03-12T02:49:09.306Z,1014.74
2019-03-12T02:50:06.670Z,1014.81
2019-03-12T02:51:06.743Z,1014.75
2019-03-12T02:52:06.642Z,1014.77
2019-03-12T02:53:06.670Z,1014.75
2019-03-12T02:54:06.626Z,1014.76
2019-03-12T02:55:06.621Z,1014.78
2019-03-12T02:56:06.612Z,1014.75
2019-03-12T02:57:06.596Z,1014.75
2019-03-12T02:58:06.584Z,1014.75
2019-03-12T02:59:06.601Z,1014.77
2019-03-12T03:00:06.556Z,1014.78
2019-03-12T03:01:06.547Z,1014.76
2019-03-12T03:02:06.541Z,1014.83
2019-03-12T03:03:06.535Z,1014.70
2019-03-12T03:04:06.520Z,1014.71
2019-03-12T03:05:06.532Z,1014.74
2019-03-12T03:06:06.497Z,1014.82
2019-03-12T03:07:06.488Z,1014.75
2019-03-12T03:08:06.506Z,1014.77
2019-03-12T03:09:06.497Z,1014.79
2019-03-12T03:10:06.453Z,1014.77
2019-03-12T03:11:06.461Z,1014.81
2019-03-12T03:12:06.455Z,1014.82
2019-03-12T03:13:06.425Z,1014.83
2019-03-12T03:14:06.413Z,1014.81
2019-03-12T03:15:06.407Z,1014.84
2019-03-12T03:16:06.399Z,1014.84
2019-03-12T03:17:06.415Z,1014.88
2019-03-12T03:18:06.368Z,1014.87
2019-03-12T03:19:06.367Z,1014.88
2019-03-12T03:20:06.344Z,1014.91
2019-03-12T03:21:06.336Z,1014.91
2019-03-12T03:22:06.361Z,1014.93
2019-03-12T03:23:06.345Z,1014.94
2019-03-12T03:24:06.301Z,1014.92
2019-03-12T03:25:06.289Z,1014.88
2019-03-12T03:26:06.297Z,1014.89
2019-03-12T03:27:06.307Z,1014.97
2019-03-12T03:28:06.264Z,1014.97
2019-03-12T03:29:06.254Z,1015.07
2019-03-12T03:30:06.247Z,1014.95
2019-03-12T03:31:06.234Z,1015.01
2019-03-12T03:32:06.220Z,1014.98
2019-03-12T03:33:06.362Z,1014.91
2019-03-12T03:34:06.217Z,1014.95
2019-03-12T03:35:06.212Z,1015.01
2019-03-12T03:36:06.210Z,1014.98
2019-03-12T03:37:06.171Z,1015.02
2019-03-12T03:38:06.154Z,1014.99
2019-03-12T03:39:06.183Z,1015.02
2019-03-12T03:40:06.142Z,1014.99
2019-03-12T03:41:06.142Z,1015.02
2019-03-12T03:42:06.141Z,1014.94
2019-03-12T03:43:06.139Z,1014.98
2019-03-12T03:44:06.227Z,1014.98
2019-03-12T03:45:06.100Z,1014.95
2019-03-12T03:46:06.078Z,1014.96
2019-03-12T03:47:06.089Z,1015.01
2019-03-12T03:48:06.076Z,1014.98
2019-03-12T03:49:06.219Z,1014.97
2019-03-12T03:50:06.028Z,1014.96
2019-03-12T03:51:06.018Z,1014.93
2019-03-12T03:52:06.057Z,1014.95
2019-03-12T03:53:05.999Z,1014.93
2019-03-12T03:54:05.991Z,1014.88
2019-03-12T03:55:05.990Z,1014.96
2019-03-12T03:56:05.965Z,1014.89
2019-03-12T03:57:05.952Z,1014.91
2019-03-12T03:58:05.984Z,1014.92
2019-03-12T03:59:05.938Z,1014.89
2019-03-12T04:00:05.930Z,1014.92
2019-03-12T04:01:05.917Z,1014.91
2019-03-12T04:02:05.919Z,1014.88
2019-03-12T04:03:05.888Z,1014.91
2019-03-12T04:04:05.877Z,1014.89
2019-03-12T04:05:05.868Z,1014.89
2019-03-12T04:06:05.869Z,1014.91
2019-03-12T04:07:05.883Z,1014.92
2019-03-12T04:08:05.846Z,1014.90
2019-03-12T04:09:05.837Z,1014.92
2019-03-12T04:10:05.825Z,1014.98
2019-03-12T04:11:05.802Z,1014.98
2019-03-12T04:12:05.802Z,1014.96
2019-03-12T04:13:05.818Z,1015.04
2019-03-12T04:14:05.771Z,1015.03
2019-03-12T04:15:05.777Z,1015.06
2019-03-12T04:16:05.766Z,1015.15
2019-03-12T04:17:05.757Z,1015.13
2019-03-12T04:18:05.735Z,1015.11
2019-03-12T04:19:05.756Z,1015.13
2019-03-12T04:20:05.715Z,1015.05
2019-03-12T04:21:05.704Z,1015.04
2019-03-12T04:22:05.697Z,1015.03
2019-03-12T04:23:05.679Z,1015.04
2019-03-12T04:24:05.675Z,1015.12
2019-03-12T04:25:05.693Z,1015.05
2019-03-12T04:26:05.650Z,1015.07
2019-03-12T04:27:05.639Z,1015.08
2019-03-12T04:28:05.627Z,1015.07
2019-03-12T04:29:05.612Z,1015.07
2019-03-12T04:30:05.611Z,1015.05
2019-03-12T04:31:05.618Z,1015.10
2019-03-12T04:32:05.584Z,1015.08
2019-03-12T04:33:05.575Z,1015.11
2019-03-12T04:34:05.559Z,1015.09
2019-03-12T04:35:05.573Z,1015.11
2019-03-12T04:36:05.558Z,1015.10
2019-03-12T04:37:05.535Z,1015.09
2019-03-12T04:38:07.211Z,1015.11
2019-03-12T04:39:05.533Z,1015.09
2019-03-12T04:40:05.527Z,1015.09
2019-03-12T04:41:05.489Z,1015.12
2019-03-12T04:42:05.472Z,1015.11
2019-03-12T04:43:05.467Z,1015.12
2019-03-12T04:44:05.462Z,1015.15
2019-03-12T04:45:05.487Z,1015.12
2019-03-12T04:46:05.431Z,1015.07
2019-03-12T04:47:05.420Z,1015.10
2019-03-12T04:48:05.412Z,1015.12
2019-03-12T04:49:05.414Z,1015.14
2019-03-12T04:50:05.416Z,1015.06
2019-03-12T04:51:05.422Z,1015.07
2019-03-12T04:52:05.381Z,1015.05
2019-03-12T04:53:05.373Z,1015.03
2019-03-12T04:54:05.385Z,1015.04
2019-03-12T04:55:05.334Z,1015.04
2019-03-12T04:56:05.346Z,1015.00
2019-03-12T04:57:05.314Z,1015.01
2019-03-12T04:58:05.359Z,1015.02
2019-03-12T04:59:05.298Z,1015.06
2019-03-12T05:00:05.287Z,1015.05
2019-03-12T05:01:05.292Z,1015.05
2019-03-12T05:02:05.278Z,1015.02
2019-03-12T05:03:05.259Z,1015.09
2019-03-12T05:04:05.304Z,1015.07
2019-03-12T05:05:05.241Z,1015.08
2019-03-12T05:06:05.302Z,1015.04
2019-03-12T05:07:05.208Z,1015.11
2019-03-12T05:08:05.251Z,1015.16
2019-03-12T05:09:05.187Z,1015.19
2019-03-12T05:10:05.182Z,1015.22
2019-03-12T05:11:05.194Z,1015.16
2019-03-12T05:12:05.163Z,1015.21
2019-03-12T05:13:05.185Z,1015.15
2019-03-12T05:14:05.133Z,1015.17
2019-03-12T05:15:05.130Z,1015.16
2019-03-12T05:16:05.118Z,1015.12
2019-03-12T05:17:05.108Z,1015.18
2019-03-12T05:18:05.090Z,1015.18
2019-03-12T05:19:05.105Z,1015.21
2019-03-12T05:20:05.069Z,1015.18
2019-03-12T05:21:05.057Z,1015.16
2019-03-12T05:22:05.076Z,1015.16
2019-03-12T05:23:05.045Z,1015.17
2019-03-12T05:24:05.034Z,1015.14
2019-03-12T05:25:05.026Z,1015.21
2019-03-12T05:26:05.008Z,1015.23
2019-03-12T05:27:05.029Z,1015.23
2019-03-12T05:28:04.985Z,1015.25
2019-03-12T05:29:04.975Z,1015.24
2019-03-12T05:30:04.971Z,1015.22
2019-03-12T05:31:04.962Z,1015.29
2019-03-12T05:32:04.951Z,1015.31
2019-03-12T05:33:04.965Z,1015.38
2019-03-12T05:34:04.929Z,1015.32
2019-03-12T05:35:04.920Z,1015.33
2019-03-12T05:36:04.905Z,1015.38
2019-03-12T05:37:04.896Z,1015.34
2019-03-12T05:38:04.878Z,1015.30
2019-03-12T05:39:04.905Z,1015.36
2019-03-12T05:40:04.861Z,1015.34
2019-03-12T05:41:04.846Z,1015.28
2019-03-12T05:42:04.842Z,1015.37
2019-03-12T05:43:04.835Z,1015.34
2019-03-12T05:44:04.823Z,1015.32
2019-03-12T05:45:04.843Z,1015.35
2019-03-12T05:46:04.819Z,1015.30
2019-03-12T05:47:07.993Z,1015.33
2019-03-12T05:48:04.778Z,1015.36
2019-03-12T05:49:04.767Z,1015.40
2019-03-12T05:50:04.755Z,1015.38
2019-03-12T05:51:04.815Z,1015.43
2019-03-12T05:52:04.989Z,1015.40
2019-03-12T05:53:04.755Z,1015.43
2019-03-12T05:54:04.713Z,1015.48
2019-03-12T05:55:04.704Z,1015.47
2019-03-12T05:56:04.709Z,1015.41
2019-03-12T05:57:04.713Z,1015.43
2019-03-12T05:58:04.667Z,1015.45
2019-03-12T05:59:04.663Z,1015.44
2019-03-12T06:00:04.646Z,1015.46
2019-03-12T06:01:04.644Z,1015.50
2019-03-12T06:02:04.633Z,1015.49
2019-03-12T06:03:04.644Z,1015.50
2019-03-12T06:04:04.627Z,1015.48
2019-03-12T06:05:04.595Z,1015.53
2019-03-12T06:06:04.717Z,1015.52
2019-03-12T06:07:04.581Z,1015.52
2019-03-12T06:08:04.595Z,1015.44
2019-03-12T06:09:04.555Z,1015.50
2019-03-12T06:10:04.543Z,1015.50
2019-03-12T06:11:04.532Z,1015.52
2019-03-12T06:12:04.519Z,1015.50
2019-03-12T06:13:04.508Z,1015.48
2019-03-12T06:14:04.541Z,1015.48
2019-03-12T06:15:04.491Z,1015.46
2019-03-12T06:16:04.504Z,1015.41
2019-03-12T06:17:04.472Z,1015.40
2019-03-12T06:18:04.476Z,1015.45
2019-03-12T06:19:04.443Z,1015.41
2019-03-12T06:20:04.439Z,1015.40
2019-03-12T06:21:04.474Z,1015.38
2019-03-12T06:22:04.416Z,1015.40
2019-03-12T06:23:04.401Z,1015.34
2019-03-12T06:24:04.392Z,1015.39
2019-03-12T06:25:04.404Z,1015.35
2019-03-12T06:26:04.383Z,1015.35
2019-03-12T06:27:04.396Z,1015.36
2019-03-12T06:28:04.354Z,1015.31
2019-03-12T06:29:04.349Z,1015.34
2019-03-12T06:30:04.329Z,1015.33
2019-03-12T06:31:04.316Z,1015.31
2019-03-12T06:32:04.306Z,1015.30
2019-03-12T06:33:04.316Z,1015.28
2019-03-12T06:34:04.295Z,1015.29
2019-03-12T06:35:04.280Z,1015.23
2019-03-12T06:36:04.262Z,1015.28
2019-03-12T06:37:04.275Z,1015.28
2019-03-12T06:38:04.265Z,1015.35
2019-03-12T06:39:04.784Z,1015.31
2019-03-12T06:40:04.257Z,1015.29
2019-03-12T06:41:04.238Z,1015.32
2019-03-12T06:42:04.198Z,1015.32
2019-03-12T06:43:04.210Z,1015.36
2019-03-12T06:44:04.200Z,1015.32
2019-03-12T06:45:04.183Z,1015.38
2019-03-12T06:46:04.206Z,1015.31
2019-03-12T06:47:04.162Z,1015.36
2019-03-12T06:48:04.170Z,1015.34
2019-03-12T06:49:04.149Z,1015.33
2019-03-12T06:50:04.117Z,1015.39
2019-03-12T06:51:04.137Z,1015.34
2019-03-12T06:52:04.153Z,1015.36
2019-03-12T06:53:04.172Z,1015.39
2019-03-12T06:54:04.093Z,1015.37
2019-03-12T06:55:04.063Z,1015.35
2019-03-12T06:56:14.315Z,1015.39
2019-03-12T06:57:04.047Z,1015.37
2019-03-12T06:58:04.077Z,1015.43
2019-03-12T06:59:04.034Z,1015.43
2019-03-12T07:00:04.039Z,1015.49
2019-03-12T07:01:04.009Z,1015.39
2019-03-12T07:02:04.001Z,1015.39
2019-03-12T07:03:03.987Z,1015.38
2019-03-12T07:04:04.035Z,1015.37
2019-03-12T07:05:03.976Z,1015.34
2019-03-12T07:06:03.964Z,1015.35
2019-03-12T07:07:07.026Z,1015.35
2019-03-12T07:08:06.380Z,1015.33
2019-03-12T07:09:03.977Z,1015.35
2019-03-12T07:10:03.919Z,1015.42
2019-03-12T07:11:03.958Z,1015.34
2019-03-12T07:12:03.965Z,1015.35
2019-03-12T07:13:14.352Z,1015.36
2019-03-12T07:14:03.913Z,1015.39
2019-03-12T07:16:07.382Z,1015.36
2019-03-12T07:16:07.789Z,1015.34
2019-03-12T07:17:07.742Z,1015.36
2019-03-12T07:18:07.737Z,1015.33
2019-03-12T07:19:07.832Z,1015.35
2019-03-12T07:20:07.709Z,1015.32
2019-03-12T07:21:07.695Z,1015.32
2019-03-12T07:22:07.690Z,1015.33
2019-03-12T07:23:07.685Z,1015.35
2019-03-12T07:24:07.678Z,1015.34
2019-03-12T07:25:07.698Z,1015.35
2019-03-12T07:26:07.649Z,1015.30
2019-03-12T07:27:07.644Z,1015.28
2019-03-12T07:28:07.637Z,1015.32
2019-03-12T07:29:07.625Z,1015.31
2019-03-12T07:30:07.615Z,1015.33
2019-03-12T07:31:07.645Z,1015.36
2019-03-12T07:32:07.587Z,1015.35
2019-03-12T07:33:07.584Z,1015.32
2019-03-12T07:34:07.608Z,1015.31
2019-03-12T07:35:08.517Z,1015.35
2019-03-12T07:36:07.754Z,1015.34
2019-03-12T07:37:07.533Z,1015.31
2019-03-12T07:38:07.541Z,1015.27
2019-03-12T07:39:07.589Z,1015.26
2019-03-12T07:40:07.533Z,1015.23
2019-03-12T07:41:07.501Z,1015.30
2019-03-12T07:42:07.517Z,1015.26
2019-03-12T07:43:08.314Z,1015.23
2019-03-12T07:44:07.510Z,1015.19
2019-03-12T07:45:07.581Z,1015.23
2019-03-12T07:46:07.491Z,1015.16
2019-03-12T07:47:07.477Z,1015.17
2019-03-12T07:48:08.313Z,1015.14
2019-03-12T07:49:17.379Z,1015.15
2019-03-12T07:50:07.392Z,1015.13
2019-03-12T07:51:07.377Z,1015.12
2019-03-12T07:52:08.772Z,1015.14
2019-03-12T07:53:07.363Z,1015.15
2019-03-12T07:54:07.373Z,1015.14
2019-03-12T07:55:07.354Z,1015.09
2019-03-12T07:56:07.335Z,1015.15
2019-03-12T07:57:07.338Z,1015.09
2019-03-12T07:58:07.366Z,1015.10
2019-03-12T07:59:08.981Z,1015.10
2019-03-12T08:00:09.915Z,1015.10
2019-03-12T08:01:07.294Z,1015.10
2019-03-12T08:02:07.346Z,1015.16
2019-03-12T08:03:07.256Z,1015.12
2019-03-12T08:04:07.393Z,1015.11
2019-03-12T08:05:07.283Z,1015.15
2019-03-12T08:06:07.249Z,1015.17
2019-03-12T08:07:07.326Z,1015.15
2019-03-12T08:08:07.843Z,1015.15
2019-03-12T08:09:07.199Z,1015.19
2019-03-12T08:10:07.878Z,1015.22
2019-03-12T08:11:07.225Z,1015.23
2019-03-12T08:12:07.251Z,1015.27
2019-03-12T08:13:07.183Z,1015.23
2019-03-12T08:14:07.161Z,1015.17
2019-03-12T08:15:07.180Z,1015.18
2019-03-12T08:16:07.150Z,1015.10
2019-03-12T08:17:07.126Z,1015.08
2019-03-12T08:18:07.961Z,1015.04
2019-03-12T08:19:07.117Z,1015.13
2019-03-12T08:20:10.423Z,1015.06
2019-03-12T08:21:07.109Z,1015.12
2019-03-12T08:22:07.063Z,1015.12
2019-03-12T08:23:07.125Z,1015.12
2019-03-12T08:24:07.058Z,1015.06
2019-03-12T08:25:07.057Z,1015.11
2019-03-12T08:26:07.067Z,1015.15
2019-03-12T08:27:07.016Z,1015.07
2019-03-12T08:28:07.030Z,1015.08
2019-03-12T08:29:07.000Z,1015.00
2019-03-12T08:30:07.037Z,1015.03
2019-03-12T08:31:07.059Z,1014.97
2019-03-12T08:32:07.100Z,1014.95
2019-03-12T08:33:07.001Z,1014.94
2019-03-12T08:34:07.022Z,1014.96
2019-03-12T08:35:06.950Z,1014.92
2019-03-12T08:36:06.989Z,1015.02
2019-03-12T08:37:06.918Z,1014.99
2019-03-12T08:38:07.001Z,1014.93
2019-03-12T08:39:06.898Z,1014.93
2019-03-12T08:40:06.892Z,1014.92
2019-03-12T08:41:07.843Z,1014.93
2019-03-12T08:42:06.891Z,1014.92
2019-03-12T08:43:06.859Z,1014.89
2019-03-12T08:44:06.958Z,1014.97
2019-03-12T08:45:06.837Z,1014.92
2019-03-12T08:46:06.826Z,1014.92
2019-03-12T08:47:06.885Z,1014.90
2019-03-12T08:48:06.832Z,1014.91
2019-03-12T08:49:06.839Z,1014.86
2019-03-12T08:50:07.186Z,1014.92
2019-03-12T08:51:06.787Z,1014.88
2019-03-12T08:52:07.346Z,1014.84
2019-03-12T08:53:06.776Z,1014.85
2019-03-12T08:54:06.791Z,1014.85
2019-03-12T08:55:06.790Z,1014.89
2019-03-12T08:56:06.731Z,1014.81
2019-03-12T08:57:06.693Z,1014.85
2019-03-12T08:58:06.713Z,1014.81
2019-03-12T08:59:06.736Z,1014.88
2019-03-12T09:00:07.344Z,1014.86
2019-03-12T09:01:06.767Z,1014.81
2019-03-12T09:02:06.821Z,1014.80
2019-03-12T09:03:06.739Z,1014.85
2019-03-12T09:04:06.651Z,1014.85
2019-03-12T09:05:06.718Z,1014.82
2019-03-12T09:06:06.604Z,1014.75
2019-03-12T09:07:06.615Z,1014.73
2019-03-12T09:08:06.564Z,1014.76
2019-03-12T09:09:06.683Z,1014.77
2019-03-12T09:10:06.579Z,1014.78
2019-03-12T09:11:06.597Z,1014.73
2019-03-12T09:12:06.545Z,1014.65
2019-03-12T09:13:06.531Z,1014.70
2019-03-12T09:14:06.570Z,1014.69
2019-03-12T09:15:06.516Z,1014.66
2019-03-12T09:16:06.526Z,1014.70
2019-03-12T09:17:07.347Z,1014.71
2019-03-12T09:18:06.583Z,1014.61
2019-03-12T09:19:06.499Z,1014.75
2019-03-12T09:20:06.547Z,1014.61
2019-03-12T09:21:06.446Z,1014.62
2019-03-12T09:22:06.445Z,1014.56
2019-03-12T09:23:06.445Z,1014.53
2019-03-12T09:24:06.426Z,1014.50
2019-03-12T09:25:06.379Z,1014.52
2019-03-12T09:26:06.451Z,1014.47
2019-03-12T09:27:06.407Z,1014.52
2019-03-12T09:28:07.346Z,1014.43
2019-03-12T09:29:06.851Z,1014.47
2019-03-12T09:30:06.385Z,1014.46
2019-03-12T09:31:06.375Z,1014.73
2019-03-12T09:32:06.327Z,1014.36
2019-03-12T09:33:06.388Z,1014.69
2019-03-12T09:34:06.312Z,1014.38
2019-03-12T09:35:06.309Z,1014.38
2019-03-12T09:36:06.287Z,1014.63
2019-03-12T09:37:06.311Z,1014.66
2019-03-12T09:38:06.854Z,1014.52
2019-03-12T09:39:06.277Z,1014.39
2019-03-12T09:40:06.861Z,1014.47
2019-03-12T09:41:06.247Z,1014.39
2019-03-12T09:42:06.242Z,1014.55
2019-03-12T09:43:06.210Z,1014.12
2019-03-12T09:44:06.205Z,1014.25
2019-03-12T09:45:06.337Z,1014.18
2019-03-12T09:46:07.108Z,1014.22
2019-03-12T09:47:06.222Z,1014.21
2019-03-12T09:48:06.306Z,1014.20
2019-03-12T09:49:06.317Z,1014.19
2019-03-12T09:50:06.974Z,1014.24
2019-03-12T09:51:07.296Z,1014.17
2019-03-12T09:52:06.102Z,1014.25
2019-03-12T09:53:06.089Z,1014.12
2019-03-12T09:54:06.071Z,1014.13
2019-03-12T09:55:06.859Z,1014.07
2019-03-12T09:56:06.176Z,1013.98
2019-03-12T09:57:06.062Z,1014.15
2019-03-12T09:58:06.234Z,1014.01
2019-03-12T09:59:06.857Z,1013.99
2019-03-12T10:00:15.314Z,1014.05
2019-03-12T10:01:07.240Z,1014.02
2019-03-12T10:02:06.007Z,1014.02
2019-03-12T10:03:05.992Z,1013.96
2019-03-12T10:04:06.018Z,1014.02
2019-03-12T10:05:06.001Z,1013.93
2019-03-12T10:06:06.899Z,1013.91
2019-03-12T10:07:05.950Z,1013.92
2019-03-12T10:08:06.034Z,1013.95
2019-03-12T10:09:05.920Z,1013.86
2019-03-12T10:10:05.906Z,1013.97
2019-03-12T10:11:07.007Z,1014.03
2019-03-12T10:12:05.899Z,1013.99
2019-03-12T10:13:05.880Z,1013.91
2019-03-12T10:14:06.367Z,1013.74
2019-03-12T10:15:06.429Z,1013.79
2019-03-12T10:16:05.849Z,1013.78
2019-03-12T10:17:05.871Z,1013.80
2019-03-12T10:18:06.367Z,1013.70
2019-03-12T10:19:05.922Z,1013.68
2019-03-12T10:20:05.804Z,1013.63
2019-03-12T10:21:06.467Z,1013.51
2019-03-12T10:22:05.777Z,1013.59
2019-03-12T10:23:05.782Z,1013.60
2019-03-12T10:24:05.817Z,1013.57
2019-03-12T10:25:05.780Z,1013.54
2019-03-12T10:26:06.379Z,1013.53
2019-03-12T10:27:06.372Z,1013.60
2019-03-12T10:28:06.372Z,1013.52
2019-03-12T10:29:06.367Z,1013.37
2019-03-12T10:30:06.887Z,1013.41
2019-03-12T10:31:05.783Z,1013.37
2019-03-12T10:32:05.658Z,1013.43
2019-03-12T10:33:05.687Z,1013.48
2019-03-12T10:34:05.731Z,1013.32
2019-03-12T10:35:06.375Z,1013.34
2019-03-12T10:36:06.956Z,1013.35
2019-03-12T10:37:11.915Z,1013.45
2019-03-12T10:38:06.606Z,1013.34
2019-03-12T10:39:05.627Z,1013.45
2019-03-12T10:40:05.640Z,1013.36
2019-03-12T10:41:05.577Z,1013.35
2019-03-12T10:42:05.561Z,1013.34
2019-03-12T10:43:07.387Z,1013.42
2019-03-12T10:44:05.532Z,1013.40
2019-03-12T10:45:05.563Z,1013.38
2019-03-12T10:46:05.558Z,1013.40
2019-03-12T10:47:05.516Z,1013.38
2019-03-12T10:48:05.533Z,1013.18
2019-03-12T10:49:05.488Z,1013.34
2019-03-12T10:50:05.508Z,1013.34
2019-03-12T10:51:05.560Z,1013.33
2019-03-12T10:52:05.455Z,1013.30
2019-03-12T10:53:05.448Z,1013.22
2019-03-12T10:54:05.431Z,1013.24
2019-03-12T10:55:12.861Z,1013.30
2019-03-12T10:56:06.516Z,1013.21
2019-03-12T10:57:06.377Z,1013.20
2019-03-12T10:58:05.876Z,1013.23
2019-03-12T10:59:05.414Z,1013.19
2019-03-12T11:00:05.365Z,1013.16
2019-03-12T11:01:06.377Z,1013.20
2019-03-12T11:02:05.346Z,1013.10
2019-03-12T11:03:05.402Z,1013.06
2019-03-12T11:04:05.413Z,1013.11
2019-03-12T11:05:05.351Z,1013.04
2019-03-12T11:06:05.331Z,1013.00
2019-03-12T11:07:16.017Z,1012.99
2019-03-12T11:08:06.966Z,1013.09
2019-03-12T11:09:05.312Z,1013.04
2019-03-12T11:10:05.889Z,1012.97
2019-03-12T11:11:05.346Z,1012.86
2019-03-12T11:12:05.448Z,1012.78
2019-03-12T11:13:05.331Z,1012.82
2019-03-12T11:14:05.319Z,1012.79
2019-03-12T11:15:05.261Z,1012.84
2019-03-12T11:16:05.301Z,1012.84
2019-03-12T11:17:05.261Z,1012.86
2019-03-12T11:18:05.216Z,1012.89
2019-03-12T11:19:05.897Z,1012.71
2019-03-12T11:20:05.932Z,1012.74
2019-03-12T11:21:05.240Z,1012.76
2019-03-12T11:22:05.149Z,1012.64
2019-03-12T11:23:05.916Z,1012.66
2019-03-12T11:24:05.388Z,1012.73
2019-03-12T11:25:05.143Z,1012.63
2019-03-12T11:26:05.119Z,1012.62
2019-03-12T11:27:05.308Z,1012.65
2019-03-12T11:28:06.588Z,1012.60
2019-03-12T11:29:05.162Z,1012.59
2019-03-12T11:30:05.190Z,1012.58
2019-03-12T11:31:05.070Z,1012.52
2019-03-12T11:32:05.946Z,1012.48
2019-03-12T11:33:05.015Z,1012.48
2019-03-12T11:34:05.960Z,1012.44
2019-03-12T11:35:05.888Z,1012.43
2019-03-12T11:36:05.892Z,1012.43
2019-03-12T11:37:04.985Z,1012.43
2019-03-12T11:38:05.184Z,1012.45
2019-03-12T11:39:05.923Z,1012.49
2019-03-12T11:40:06.396Z,1012.43
2019-03-12T11:41:05.033Z,1012.53
2019-03-12T11:42:05.063Z,1012.43
2019-03-12T11:43:05.901Z,1012.45
2019-03-12T11:44:05.130Z,1012.38
2019-03-12T11:45:13.242Z,1012.34
2019-03-12T11:46:05.911Z,1012.27
2019-03-12T11:47:05.405Z,1012.26
2019-03-12T11:48:04.883Z,1012.24
2019-03-12T11:49:05.007Z,1012.17
2019-03-12T11:50:04.834Z,1012.12
2019-03-12T11:51:06.003Z,1012.16
2019-03-12T11:52:05.908Z,1012.22
2019-03-12T11:53:06.562Z,1012.27
2019-03-12T11:54:04.947Z,1012.18
2019-03-12T11:55:04.868Z,1012.13
2019-03-12T11:56:05.400Z,1012.11
2019-03-12T11:57:04.850Z,1012.18
2019-03-12T11:58:04.902Z,1012.06
2019-03-12T11:59:04.884Z,1012.04
2019-03-12T12:00:05.460Z,1012.00
2019-03-12T12:01:04.867Z,1011.98
2019-03-12T12:02:04.701Z,1012.01
2019-03-12T12:03:04.726Z,1012.08
2019-03-12T12:04:04.672Z,1011.98
2019-03-12T12:05:05.461Z,1012.02